sensor_id;sensor_type;location;lat;lon;timestamp;temperature;humidity
32502;DHT22;18952;52.516;13.460;2023-11-19T00:01:01;4.60;99.90
32502;DHT22;18952;52.516;13.460;2023-11-19T00:03:28;4.60;99.90
32502;DHT22;18952;52.516;13.460;2023-11-19T00:05:55;4.70;99.90
32502;DHT22;18952;52.516;13.460;2023-11-19T00:08:22;4.70;99.90
32502;DHT22;18952;52.516;13.460;2023-11-19T00:10:49;4.70;99.90
32502;DHT22;18952;52.516;13.460;2023-11-19T00:13:15;4.70;99.90
32502;DHT22;18952;52.516;13.460;2023-11-19T00:15:42;4.70;99.90
32502;DHT22;18952;52.516;13.460;2023-11-19T00:18:09;4.70;99.90
32502;DHT22;18952;52.516;13.460;2023-11-19T00:20:36;4.60;99.90
32502;DHT22;18952;52.516;13.460;2023-11-19T00:23:03;4.60;99.90
32502;DHT22;18952;52.516;13.460;2023-11-19T00:25:30;4.60;99.90
32502;DHT22;18952;52.516;13.460;2023-11-19T00:27:57;4.50;99.90
32502;DHT22;18952;52.516;13.460;2023-11-19T00:30:23;4.50;99.90
32502;DHT22;18952;52.516;13.460;2023-11-19T00:32:50;4.50;99.90
32502;DHT22;18952;52.516;13.460;2023-11-19T00:35:17;4.50;99.90
32502;DHT22;18952;52.516;13.460;2023-11-19T00:37:44;4.60;99.90
32502;DHT22;18952;52.516;13.460;2023-11-19T00:40:11;4.60;99.90
32502;DHT22;18952;52.516;13.460;2023-11-19T00:42:38;4.60;99.90
32502;DHT22;18952;52.516;13.460;2023-11-19T00:45:05;4.60;99.90
32502;DHT22;18952;52.516;13.460;2023-11-19T00:47:32;4.60;99.90
32502;DHT22;18952;52.516;13.460;2023-11-19T00:49:59;4.60;99.90
32502;DHT22;18952;52.516;13.460;2023-11-19T00:52:26;4.70;99.90
32502;DHT22;18952;52.516;13.460;2023-11-19T00:54:53;4.70;99.90
32502;DHT22;18952;52.516;13.460;2023-11-19T00:57:20;4.60;99.90
32502;DHT22;18952;52.516;13.460;2023-11-19T00:59:47;4.70;99.90
32502;DHT22;18952;52.516;13.460;2023-11-19T01:02:14;4.70;99.90
32502;DHT22;18952;52.516;13.460;2023-11-19T01:04:41;4.60;99.90
32502;DHT22;18952;52.516;13.460;2023-11-19T01:07:08;4.60;99.90
32502;DHT22;18952;52.516;13.460;2023-11-19T01:09:35;4.60;99.90
32502;DHT22;18952;52.516;13.460;2023-11-19T01:12:05;4.60;99.90
32502;DHT22;18952;52.516;13.460;2023-11-19T01:14:32;4.60;99.90
32502;DHT22;18952;52.516;13.460;2023-11-19T01:16:59;4.70;99.90
32502;DHT22;18952;52.516;13.460;2023-11-19T01:19:26;4.70;99.90
32502;DHT22;18952;52.516;13.460;2023-11-19T01:21:53;4.60;99.90
32502;DHT22;18952;52.516;13.460;2023-11-19T01:24:20;4.60;99.90
32502;DHT22;18952;52.516;13.460;2023-11-19T01:26:47;4.50;99.90
32502;DHT22;18952;52.516;13.460;2023-11-19T01:29:15;4.50;99.90
32502;DHT22;18952;52.516;13.460;2023-11-19T01:31:42;4.60;99.90
32502;DHT22;18952;52.516;13.460;2023-11-19T01:34:10;4.60;99.90
32502;DHT22;18952;52.516;13.460;2023-11-19T01:36:37;4.60;99.90
32502;DHT22;18952;52.516;13.460;2023-11-19T01:39:04;4.60;99.90
32502;DHT22;18952;52.516;13.460;2023-11-19T01:41:34;4.60;99.90
32502;DHT22;18952;52.516;13.460;2023-11-19T01:44:01;4.60;99.90
32502;DHT22;18952;52.516;13.460;2023-11-19T01:46:29;4.60;99.90
32502;DHT22;18952;52.516;13.460;2023-11-19T01:48:56;4.60;99.90
32502;DHT22;18952;52.516;13.460;2023-11-19T01:51:23;4.60;99.90
32502;DHT22;18952;52.516;13.460;2023-11-19T01:53:50;4.70;99.90
32502;DHT22;18952;52.516;13.460;2023-11-19T01:56:17;4.70;99.90
32502;DHT22;18952;52.516;13.460;2023-11-19T01:58:48;4.60;99.90
32502;DHT22;18952;52.516;13.460;2023-11-19T02:01:16;4.60;99.90
32502;DHT22;18952;52.516;13.460;2023-11-19T02:03:43;4.60;99.90
32502;DHT22;18952;52.516;13.460;2023-11-19T02:06:10;4.60;99.90
32502;DHT22;18952;52.516;13.460;2023-11-19T02:08:37;4.60;99.90
32502;DHT22;18952;52.516;13.460;2023-11-19T02:11:05;4.60;99.90
32502;DHT22;18952;52.516;13.460;2023-11-19T02:13:32;4.60;99.90
32502;DHT22;18952;52.516;13.460;2023-11-19T02:15:59;4.60;99.90
32502;DHT22;18952;52.516;13.460;2023-11-19T02:18:27;4.60;99.90
32502;DHT22;18952;52.516;13.460;2023-11-19T02:20:55;4.60;99.90
32502;DHT22;18952;52.516;13.460;2023-11-19T02:23:22;4.60;99.90
32502;DHT22;18952;52.516;13.460;2023-11-19T02:28:32;4.60;99.90
32502;DHT22;18952;52.516;13.460;2023-11-19T02:31:01;4.60;99.90
32502;DHT22;18952;52.516;13.460;2023-11-19T02:33:28;4.60;99.90
32502;DHT22;18952;52.516;13.460;2023-11-19T02:35:55;4.60;99.90
32502;DHT22;18952;52.516;13.460;2023-11-19T02:38:22;4.60;99.90
32502;DHT22;18952;52.516;13.460;2023-11-19T02:40:49;4.60;99.90
32502;DHT22;18952;52.516;13.460;2023-11-19T02:43:16;4.60;99.90
32502;DHT22;18952;52.516;13.460;2023-11-19T02:45:43;4.60;99.90
32502;DHT22;18952;52.516;13.460;2023-11-19T02:48:10;4.60;99.90
32502;DHT22;18952;52.516;13.460;2023-11-19T02:50:36;4.60;99.90
32502;DHT22;18952;52.516;13.460;2023-11-19T02:53:03;4.70;99.90
32502;DHT22;18952;52.516;13.460;2023-11-19T02:55:30;4.70;99.90
32502;DHT22;18952;52.516;13.460;2023-11-19T02:57:59;4.70;99.90
32502;DHT22;18952;52.516;13.460;2023-11-19T03:00:26;4.60;99.90
32502;DHT22;18952;52.516;13.460;2023-11-19T03:02:53;4.70;99.90
32502;DHT22;18952;52.516;13.460;2023-11-19T03:05:20;4.70;99.90
32502;DHT22;18952;52.516;13.460;2023-11-19T03:07:47;4.70;99.90
32502;DHT22;18952;52.516;13.460;2023-11-19T03:10:14;4.70;99.90
32502;DHT22;18952;52.516;13.460;2023-11-19T03:12:41;4.70;99.90
32502;DHT22;18952;52.516;13.460;2023-11-19T03:15:09;4.70;99.90
32502;DHT22;18952;52.516;13.460;2023-11-19T03:17:39;4.80;99.90
32502;DHT22;18952;52.516;13.460;2023-11-19T03:20:07;4.80;99.90
32502;DHT22;18952;52.516;13.460;2023-11-19T03:22:36;4.80;99.90
32502;DHT22;18952;52.516;13.460;2023-11-19T03:25:03;4.80;99.90
32502;DHT22;18952;52.516;13.460;2023-11-19T03:27:30;4.80;99.90
32502;DHT22;18952;52.516;13.460;2023-11-19T03:29:57;4.80;99.90
32502;DHT22;18952;52.516;13.460;2023-11-19T03:32:24;4.80;99.90
32502;DHT22;18952;52.516;13.460;2023-11-19T03:34:50;4.70;99.90
32502;DHT22;18952;52.516;13.460;2023-11-19T03:37:17;4.80;99.90
32502;DHT22;18952;52.516;13.460;2023-11-19T03:39:44;4.70;99.90
32502;DHT22;18952;52.516;13.460;2023-11-19T03:42:11;4.70;99.90
32502;DHT22;18952;52.516;13.460;2023-11-19T03:44:38;4.70;99.90
32502;DHT22;18952;52.516;13.460;2023-11-19T03:47:05;4.70;99.90
32502;DHT22;18952;52.516;13.460;2023-11-19T03:49:32;4.70;99.90
32502;DHT22;18952;52.516;13.460;2023-11-19T03:51:58;4.60;99.90
32502;DHT22;18952;52.516;13.460;2023-11-19T03:54:25;4.60;99.90
32502;DHT22;18952;52.516;13.460;2023-11-19T03:56:52;4.50;99.90
32502;DHT22;18952;52.516;13.460;2023-11-19T03:59:19;4.50;99.90
32502;DHT22;18952;52.516;13.460;2023-11-19T04:01:46;4.50;99.90
32502;DHT22;18952;52.516;13.460;2023-11-19T04:04:13;4.50;99.90
32502;DHT22;18952;52.516;13.460;2023-11-19T04:06:40;4.50;99.90
32502;DHT22;18952;52.516;13.460;2023-11-19T04:09:07;4.50;99.90
32502;DHT22;18952;52.516;13.460;2023-11-19T04:11:35;4.50;99.90
32502;DHT22;18952;52.516;13.460;2023-11-19T04:14:02;4.40;99.90
32502;DHT22;18952;52.516;13.460;2023-11-19T04:16:29;4.40;99.90
32502;DHT22;18952;52.516;13.460;2023-11-19T04:18:56;4.40;99.90
32502;DHT22;18952;52.516;13.460;2023-11-19T04:21:23;4.50;99.90
32502;DHT22;18952;52.516;13.460;2023-11-19T04:23:50;4.40;99.90
32502;DHT22;18952;52.516;13.460;2023-11-19T04:26:17;4.40;99.90
32502;DHT22;18952;52.516;13.460;2023-11-19T04:28:43;4.40;99.90
32502;DHT22;18952;52.516;13.460;2023-11-19T04:31:10;4.40;99.90
32502;DHT22;18952;52.516;13.460;2023-11-19T04:33:37;4.40;99.90
32502;DHT22;18952;52.516;13.460;2023-11-19T04:36:04;4.40;99.90
32502;DHT22;18952;52.516;13.460;2023-11-19T04:38:31;4.40;99.90
32502;DHT22;18952;52.516;13.460;2023-11-19T04:40:58;4.40;99.90
32502;DHT22;18952;52.516;13.460;2023-11-19T04:43:25;4.40;99.90
32502;DHT22;18952;52.516;13.460;2023-11-19T04:45:52;4.40;99.90
32502;DHT22;18952;52.516;13.460;2023-11-19T04:48:19;4.40;99.90
32502;DHT22;18952;52.516;13.460;2023-11-19T04:50:46;4.40;99.90
32502;DHT22;18952;52.516;13.460;2023-11-19T04:53:12;4.40;99.90
32502;DHT22;18952;52.516;13.460;2023-11-19T04:55:39;4.40;99.90
32502;DHT22;18952;52.516;13.460;2023-11-19T04:58:06;4.40;99.90
32502;DHT22;18952;52.516;13.460;2023-11-19T05:00:33;4.40;99.90
32502;DHT22;18952;52.516;13.460;2023-11-19T05:03:00;4.40;99.90
32502;DHT22;18952;52.516;13.460;2023-11-19T05:05:27;4.30;99.90
32502;DHT22;18952;52.516;13.460;2023-11-19T05:07:54;4.30;99.90
32502;DHT22;18952;52.516;13.460;2023-11-19T05:10:21;4.40;99.90
32502;DHT22;18952;52.516;13.460;2023-11-19T05:12:47;4.30;99.90
32502;DHT22;18952;52.516;13.460;2023-11-19T05:15:14;4.30;99.90
32502;DHT22;18952;52.516;13.460;2023-11-19T05:17:41;4.30;99.90
32502;DHT22;18952;52.516;13.460;2023-11-19T05:20:08;4.20;99.90
32502;DHT22;18952;52.516;13.460;2023-11-19T05:22:35;4.20;99.90
32502;DHT22;18952;52.516;13.460;2023-11-19T05:25:02;4.20;99.90
32502;DHT22;18952;52.516;13.460;2023-11-19T05:27:29;4.20;99.90
32502;DHT22;18952;52.516;13.460;2023-11-19T05:29:56;4.20;99.90
32502;DHT22;18952;52.516;13.460;2023-11-19T05:32:23;4.20;99.90
32502;DHT22;18952;52.516;13.460;2023-11-19T05:34:50;4.10;99.90
32502;DHT22;18952;52.516;13.460;2023-11-19T05:37:18;4.10;99.90
32502;DHT22;18952;52.516;13.460;2023-11-19T05:39:45;4.10;99.90
32502;DHT22;18952;52.516;13.460;2023-11-19T05:42:12;4.10;99.90
32502;DHT22;18952;52.516;13.460;2023-11-19T05:44:39;4.10;99.90
32502;DHT22;18952;52.516;13.460;2023-11-19T05:47:07;4.10;99.90
32502;DHT22;18952;52.516;13.460;2023-11-19T05:49:34;4.00;99.90
32502;DHT22;18952;52.516;13.460;2023-11-19T05:52:01;4.00;99.90
32502;DHT22;18952;52.516;13.460;2023-11-19T05:54:28;4.10;99.90
32502;DHT22;18952;52.516;13.460;2023-11-19T05:56:57;4.00;99.90
32502;DHT22;18952;52.516;13.460;2023-11-19T05:59:24;4.00;99.90
32502;DHT22;18952;52.516;13.460;2023-11-19T06:01:50;4.00;99.90
32502;DHT22;18952;52.516;13.460;2023-11-19T06:04:17;4.00;99.90
32502;DHT22;18952;52.516;13.460;2023-11-19T06:06:44;4.00;99.90
32502;DHT22;18952;52.516;13.460;2023-11-19T06:09:11;4.00;99.90
32502;DHT22;18952;52.516;13.460;2023-11-19T06:11:40;4.00;99.90
32502;DHT22;18952;52.516;13.460;2023-11-19T06:14:07;4.00;99.90
32502;DHT22;18952;52.516;13.460;2023-11-19T06:16:34;4.00;99.90
32502;DHT22;18952;52.516;13.460;2023-11-19T06:19:01;4.00;99.90
32502;DHT22;18952;52.516;13.460;2023-11-19T06:21:28;4.00;99.90
32502;DHT22;18952;52.516;13.460;2023-11-19T06:23:55;4.00;99.90
32502;DHT22;18952;52.516;13.460;2023-11-19T06:26:22;4.00;99.90
32502;DHT22;18952;52.516;13.460;2023-11-19T06:28:48;4.10;99.90
32502;DHT22;18952;52.516;13.460;2023-11-19T06:31:15;4.10;99.90
32502;DHT22;18952;52.516;13.460;2023-11-19T06:33:42;4.10;99.90
32502;DHT22;18952;52.516;13.460;2023-11-19T06:36:09;4.10;99.90
32502;DHT22;18952;52.516;13.460;2023-11-19T06:38:36;4.10;99.90
32502;DHT22;18952;52.516;13.460;2023-11-19T06:41:08;4.10;99.90
32502;DHT22;18952;52.516;13.460;2023-11-19T06:43:36;4.20;99.90
32502;DHT22;18952;52.516;13.460;2023-11-19T06:46:13;4.20;99.90
32502;DHT22;18952;52.516;13.460;2023-11-19T06:48:40;4.20;99.90
32502;DHT22;18952;52.516;13.460;2023-11-19T06:51:07;4.20;99.90
32502;DHT22;18952;52.516;13.460;2023-11-19T06:53:34;4.20;99.90
32502;DHT22;18952;52.516;13.460;2023-11-19T06:56:01;4.30;99.90
32502;DHT22;18952;52.516;13.460;2023-11-19T06:58:28;4.30;99.90
32502;DHT22;18952;52.516;13.460;2023-11-19T07:00:55;4.30;99.90
32502;DHT22;18952;52.516;13.460;2023-11-19T07:03:21;4.30;99.90
32502;DHT22;18952;52.516;13.460;2023-11-19T07:05:48;4.40;99.90
32502;DHT22;18952;52.516;13.460;2023-11-19T07:08:15;4.40;99.90
32502;DHT22;18952;52.516;13.460;2023-11-19T07:10:42;4.40;99.90
32502;DHT22;18952;52.516;13.460;2023-11-19T07:13:09;4.40;99.90
32502;DHT22;18952;52.516;13.460;2023-11-19T07:15:36;4.40;99.90
32502;DHT22;18952;52.516;13.460;2023-11-19T07:18:03;4.40;99.90
32502;DHT22;18952;52.516;13.460;2023-11-19T07:20:31;4.40;99.90
32502;DHT22;18952;52.516;13.460;2023-11-19T07:22:58;4.40;99.90
32502;DHT22;18952;52.516;13.460;2023-11-19T07:25:25;4.40;99.90
32502;DHT22;18952;52.516;13.460;2023-11-19T07:27:52;4.30;99.90
32502;DHT22;18952;52.516;13.460;2023-11-19T07:30:19;4.40;99.90
32502;DHT22;18952;52.516;13.460;2023-11-19T07:32:46;4.40;99.90
32502;DHT22;18952;52.516;13.460;2023-11-19T07:35:13;4.40;99.90
32502;DHT22;18952;52.516;13.460;2023-11-19T07:37:40;4.40;99.90
32502;DHT22;18952;52.516;13.460;2023-11-19T07:40:07;4.50;99.90
32502;DHT22;18952;52.516;13.460;2023-11-19T07:42:34;4.50;99.90
32502;DHT22;18952;52.516;13.460;2023-11-19T07:45:02;4.40;99.90
32502;DHT22;18952;52.516;13.460;2023-11-19T07:47:29;4.50;99.90
32502;DHT22;18952;52.516;13.460;2023-11-19T07:49:56;4.50;99.90
32502;DHT22;18952;52.516;13.460;2023-11-19T07:52:23;4.50;99.90
32502;DHT22;18952;52.516;13.460;2023-11-19T07:54:50;4.60;99.90
32502;DHT22;18952;52.516;13.460;2023-11-19T07:57:17;4.60;99.90
32502;DHT22;18952;52.516;13.460;2023-11-19T07:59:44;4.60;99.90
32502;DHT22;18952;52.516;13.460;2023-11-19T08:02:11;4.70;99.90
32502;DHT22;18952;52.516;13.460;2023-11-19T08:04:38;4.70;99.90
32502;DHT22;18952;52.516;13.460;2023-11-19T08:07:05;4.70;99.90
32502;DHT22;18952;52.516;13.460;2023-11-19T08:09:32;4.80;99.90
32502;DHT22;18952;52.516;13.460;2023-11-19T08:11:59;4.80;99.90
32502;DHT22;18952;52.516;13.460;2023-11-19T08:14:25;4.90;99.90
32502;DHT22;18952;52.516;13.460;2023-11-19T08:16:53;4.90;99.90
32502;DHT22;18952;52.516;13.460;2023-11-19T08:19:20;4.90;99.90
32502;DHT22;18952;52.516;13.460;2023-11-19T08:21:47;4.90;99.90
32502;DHT22;18952;52.516;13.460;2023-11-19T08:24:14;5.00;99.90
32502;DHT22;18952;52.516;13.460;2023-11-19T08:26:41;5.00;99.90
32502;DHT22;18952;52.516;13.460;2023-11-19T08:29:08;5.10;99.90
32502;DHT22;18952;52.516;13.460;2023-11-19T08:32:02;5.10;99.90
32502;DHT22;18952;52.516;13.460;2023-11-19T08:34:59;5.10;99.90
32502;DHT22;18952;52.516;13.460;2023-11-19T08:37:25;5.20;99.90
32502;DHT22;18952;52.516;13.460;2023-11-19T08:39:53;5.20;99.90
32502;DHT22;18952;52.516;13.460;2023-11-19T08:42:20;5.20;99.90
32502;DHT22;18952;52.516;13.460;2023-11-19T08:44:50;5.30;99.90
32502;DHT22;18952;52.516;13.460;2023-11-19T08:47:17;5.30;99.90
32502;DHT22;18952;52.516;13.460;2023-11-19T08:49:44;5.40;99.90
32502;DHT22;18952;52.516;13.460;2023-11-19T08:52:11;5.40;99.90
32502;DHT22;18952;52.516;13.460;2023-11-19T08:54:38;5.40;99.90
32502;DHT22;18952;52.516;13.460;2023-11-19T08:57:08;5.40;99.90
32502;DHT22;18952;52.516;13.460;2023-11-19T08:59:36;5.50;99.90
32502;DHT22;18952;52.516;13.460;2023-11-19T09:02:04;5.60;99.90
32502;DHT22;18952;52.516;13.460;2023-11-19T09:04:31;5.60;99.90
32502;DHT22;18952;52.516;13.460;2023-11-19T09:06:58;5.70;99.90
32502;DHT22;18952;52.516;13.460;2023-11-19T09:09:25;5.70;99.90
32502;DHT22;18952;52.516;13.460;2023-11-19T09:11:58;5.70;99.90
32502;DHT22;18952;52.516;13.460;2023-11-19T09:14:25;5.70;99.90
32502;DHT22;18952;52.516;13.460;2023-11-19T09:16:53;5.70;99.90
32502;DHT22;18952;52.516;13.460;2023-11-19T09:19:20;5.80;99.90
32502;DHT22;18952;52.516;13.460;2023-11-19T09:21:47;5.80;99.90
32502;DHT22;18952;52.516;13.460;2023-11-19T09:24:15;5.90;99.90
32502;DHT22;18952;52.516;13.460;2023-11-19T09:26:42;5.90;99.90
32502;DHT22;18952;52.516;13.460;2023-11-19T09:29:09;6.00;99.90
32502;DHT22;18952;52.516;13.460;2023-11-19T09:31:38;6.10;99.90
32502;DHT22;18952;52.516;13.460;2023-11-19T09:34:05;6.10;99.90
32502;DHT22;18952;52.516;13.460;2023-11-19T09:36:32;6.20;99.90
32502;DHT22;18952;52.516;13.460;2023-11-19T09:38:59;6.30;99.90
32502;DHT22;18952;52.516;13.460;2023-11-19T09:41:26;6.40;99.90
32502;DHT22;18952;52.516;13.460;2023-11-19T09:43:53;6.50;99.90
32502;DHT22;18952;52.516;13.460;2023-11-19T09:46:21;6.60;99.90
32502;DHT22;18952;52.516;13.460;2023-11-19T09:48:48;6.70;99.90
32502;DHT22;18952;52.516;13.460;2023-11-19T09:51:16;6.80;99.90
32502;DHT22;18952;52.516;13.460;2023-11-19T09:53:43;6.90;99.90
32502;DHT22;18952;52.516;13.460;2023-11-19T09:56:13;6.90;99.90
32502;DHT22;18952;52.516;13.460;2023-11-19T09:58:41;7.10;99.90
32502;DHT22;18952;52.516;13.460;2023-11-19T10:01:08;7.20;99.90
32502;DHT22;18952;52.516;13.460;2023-11-19T10:03:42;7.30;99.90
32502;DHT22;18952;52.516;13.460;2023-11-19T10:06:10;7.40;99.90
32502;DHT22;18952;52.516;13.460;2023-11-19T10:08:38;7.50;99.90
32502;DHT22;18952;52.516;13.460;2023-11-19T10:11:06;7.60;99.90
32502;DHT22;18952;52.516;13.460;2023-11-19T10:13:37;7.60;99.90
32502;DHT22;18952;52.516;13.460;2023-11-19T10:16:13;7.60;99.90
32502;DHT22;18952;52.516;13.460;2023-11-19T10:18:49;7.70;99.90
32502;DHT22;18952;52.516;13.460;2023-11-19T10:21:19;7.70;99.90
32502;DHT22;18952;52.516;13.460;2023-11-19T10:23:50;7.80;99.90
32502;DHT22;18952;52.516;13.460;2023-11-19T10:26:20;7.80;99.90
32502;DHT22;18952;52.516;13.460;2023-11-19T10:28:48;7.80;99.90
32502;DHT22;18952;52.516;13.460;2023-11-19T10:31:19;7.90;99.90
32502;DHT22;18952;52.516;13.460;2023-11-19T10:33:47;7.90;99.90
32502;DHT22;18952;52.516;13.460;2023-11-19T10:36:15;8.00;99.90
32502;DHT22;18952;52.516;13.460;2023-11-19T10:38:56;8.00;99.90
32502;DHT22;18952;52.516;13.460;2023-11-19T10:41:32;8.10;99.90
32502;DHT22;18952;52.516;13.460;2023-11-19T10:44:10;8.10;99.90
32502;DHT22;18952;52.516;13.460;2023-11-19T10:46:41;8.20;99.90
32502;DHT22;18952;52.516;13.460;2023-11-19T10:49:14;8.40;99.90
32502;DHT22;18952;52.516;13.460;2023-11-19T10:52:01;8.50;99.90
32502;DHT22;18952;52.516;13.460;2023-11-19T10:58:17;8.80;99.90
32502;DHT22;18952;52.516;13.460;2023-11-19T11:00:54;8.90;99.90
32502;DHT22;18952;52.516;13.460;2023-11-19T11:03:25;9.00;99.90
32502;DHT22;18952;52.516;13.460;2023-11-19T11:05:53;9.00;99.90
32502;DHT22;18952;52.516;13.460;2023-11-19T11:08:20;9.10;99.90
32502;DHT22;18952;52.516;13.460;2023-11-19T11:10:54;9.10;99.90
32502;DHT22;18952;52.516;13.460;2023-11-19T11:13:26;9.20;99.90
32502;DHT22;18952;52.516;13.460;2023-11-19T11:15:55;9.20;99.90
32502;DHT22;18952;52.516;13.460;2023-11-19T11:18:24;9.20;99.90
32502;DHT22;18952;52.516;13.460;2023-11-19T11:20:55;9.20;99.90
32502;DHT22;18952;52.516;13.460;2023-11-19T11:32:43;9.40;99.90
32502;DHT22;18952;52.516;13.460;2023-11-19T11:38:07;9.50;99.90
32502;DHT22;18952;52.516;13.460;2023-11-19T11:40:34;9.50;99.90
32502;DHT22;18952;52.516;13.460;2023-11-19T11:43:02;9.60;99.90
32502;DHT22;18952;52.516;13.460;2023-11-19T11:45:39;9.60;99.90
32502;DHT22;18952;52.516;13.460;2023-11-19T11:48:17;9.70;99.90
32502;DHT22;18952;52.516;13.460;2023-11-19T11:50:53;9.80;99.90
32502;DHT22;18952;52.516;13.460;2023-11-19T11:53:22;9.90;99.90
32502;DHT22;18952;52.516;13.460;2023-11-19T11:58:20;10.10;99.90
32502;DHT22;18952;52.516;13.460;2023-11-19T12:00:48;10.30;99.90
32502;DHT22;18952;52.516;13.460;2023-11-19T12:03:20;10.30;99.90
32502;DHT22;18952;52.516;13.460;2023-11-19T12:05:48;10.40;99.90
32502;DHT22;18952;52.516;13.460;2023-11-19T12:08:28;10.30;99.90
32502;DHT22;18952;52.516;13.460;2023-11-19T12:11:17;10.30;99.90
32502;DHT22;18952;52.516;13.460;2023-11-19T12:13:56;10.30;99.90
32502;DHT22;18952;52.516;13.460;2023-11-19T12:16:23;10.30;99.90
32502;DHT22;18952;52.516;13.460;2023-11-19T12:18:50;10.40;99.90
32502;DHT22;18952;52.516;13.460;2023-11-19T12:21:30;10.40;99.90
32502;DHT22;18952;52.516;13.460;2023-11-19T12:23:59;10.40;99.90
32502;DHT22;18952;52.516;13.460;2023-11-19T12:26:37;10.40;99.90
32502;DHT22;18952;52.516;13.460;2023-11-19T12:29:04;10.40;99.90
32502;DHT22;18952;52.516;13.460;2023-11-19T12:31:34;10.40;99.90
32502;DHT22;18952;52.516;13.460;2023-11-19T12:34:05;10.40;99.90
32502;DHT22;18952;52.516;13.460;2023-11-19T12:36:34;10.40;99.90
32502;DHT22;18952;52.516;13.460;2023-11-19T12:39:01;10.40;99.90
32502;DHT22;18952;52.516;13.460;2023-11-19T12:41:28;10.30;99.90
32502;DHT22;18952;52.516;13.460;2023-11-19T12:44:09;10.30;99.90
32502;DHT22;18952;52.516;13.460;2023-11-19T12:46:35;10.30;99.90
32502;DHT22;18952;52.516;13.460;2023-11-19T12:49:02;10.30;99.90
32502;DHT22;18952;52.516;13.460;2023-11-19T12:51:33;10.20;99.90
32502;DHT22;18952;52.516;13.460;2023-11-19T12:54:04;10.20;99.90
32502;DHT22;18952;52.516;13.460;2023-11-19T12:56:31;10.10;99.90
32502;DHT22;18952;52.516;13.460;2023-11-19T12:59:10;10.10;99.90
32502;DHT22;18952;52.516;13.460;2023-11-19T13:02:22;10.10;99.90
32502;DHT22;18952;52.516;13.460;2023-11-19T13:04:58;10.10;99.90
32502;DHT22;18952;52.516;13.460;2023-11-19T13:07:25;10.10;99.90
32502;DHT22;18952;52.516;13.460;2023-11-19T13:10:01;10.00;99.90
32502;DHT22;18952;52.516;13.460;2023-11-19T13:12:28;10.00;99.90
32502;DHT22;18952;52.516;13.460;2023-11-19T13:14:55;10.00;99.90
32502;DHT22;18952;52.516;13.460;2023-11-19T13:17:23;10.10;99.90
32502;DHT22;18952;52.516;13.460;2023-11-19T13:19:50;10.20;99.90
32502;DHT22;18952;52.516;13.460;2023-11-19T13:22:17;10.30;99.90
32502;DHT22;18952;52.516;13.460;2023-11-19T13:24:44;10.40;99.90
32502;DHT22;18952;52.516;13.460;2023-11-19T13:27:11;10.40;99.90
32502;DHT22;18952;52.516;13.460;2023-11-19T13:29:38;10.50;99.90
32502;DHT22;18952;52.516;13.460;2023-11-19T13:32:05;10.50;99.90
32502;DHT22;18952;52.516;13.460;2023-11-19T13:34:34;10.40;99.90
32502;DHT22;18952;52.516;13.460;2023-11-19T13:37:36;10.30;99.90
32502;DHT22;18952;52.516;13.460;2023-11-19T13:40:12;10.30;99.90
32502;DHT22;18952;52.516;13.460;2023-11-19T13:42:43;10.20;99.90
32502;DHT22;18952;52.516;13.460;2023-11-19T13:45:14;10.20;99.90
32502;DHT22;18952;52.516;13.460;2023-11-19T13:47:43;10.20;99.90
32502;DHT22;18952;52.516;13.460;2023-11-19T13:50:15;10.20;99.90
32502;DHT22;18952;52.516;13.460;2023-11-19T13:52:44;10.20;99.90
32502;DHT22;18952;52.516;13.460;2023-11-19T13:55:15;10.20;99.90
32502;DHT22;18952;52.516;13.460;2023-11-19T13:57:43;10.10;99.90
32502;DHT22;18952;52.516;13.460;2023-11-19T14:00:11;10.20;99.90
32502;DHT22;18952;52.516;13.460;2023-11-19T14:02:39;10.20;99.90
32502;DHT22;18952;52.516;13.460;2023-11-19T14:05:34;10.20;99.90
32502;DHT22;18952;52.516;13.460;2023-11-19T14:08:08;10.20;99.90
32502;DHT22;18952;52.516;13.460;2023-11-19T14:10:48;10.20;99.90
32502;DHT22;18952;52.516;13.460;2023-11-19T14:13:15;10.20;99.90
32502;DHT22;18952;52.516;13.460;2023-11-19T14:15:41;10.10;99.90
32502;DHT22;18952;52.516;13.460;2023-11-19T14:18:09;10.10;99.90
32502;DHT22;18952;52.516;13.460;2023-11-19T14:20:36;10.20;99.90
32502;DHT22;18952;52.516;13.460;2023-11-19T14:23:03;10.10;99.90
32502;DHT22;18952;52.516;13.460;2023-11-19T14:25:30;10.10;99.90
32502;DHT22;18952;52.516;13.460;2023-11-19T14:27:57;10.10;99.90
32502;DHT22;18952;52.516;13.460;2023-11-19T14:30:24;10.10;99.90
32502;DHT22;18952;52.516;13.460;2023-11-19T14:32:51;10.10;99.90
32502;DHT22;18952;52.516;13.460;2023-11-19T14:35:18;10.00;99.90
32502;DHT22;18952;52.516;13.460;2023-11-19T14:37:45;10.10;99.90
32502;DHT22;18952;52.516;13.460;2023-11-19T14:40:12;10.10;99.90
32502;DHT22;18952;52.516;13.460;2023-11-19T14:42:41;10.10;99.90
32502;DHT22;18952;52.516;13.460;2023-11-19T14:45:09;10.00;99.90
32502;DHT22;18952;52.516;13.460;2023-11-19T14:47:36;10.00;99.90
32502;DHT22;18952;52.516;13.460;2023-11-19T14:50:03;10.00;99.90
32502;DHT22;18952;52.516;13.460;2023-11-19T14:52:30;10.00;99.90
32502;DHT22;18952;52.516;13.460;2023-11-19T14:54:57;10.00;99.90
32502;DHT22;18952;52.516;13.460;2023-11-19T14:57:27;10.00;99.90
32502;DHT22;18952;52.516;13.460;2023-11-19T14:59:57;10.00;99.90
32502;DHT22;18952;52.516;13.460;2023-11-19T15:02:27;10.00;99.90
32502;DHT22;18952;52.516;13.460;2023-11-19T15:08:21;10.00;99.90
32502;DHT22;18952;52.516;13.460;2023-11-19T15:10:59;10.00;99.90
32502;DHT22;18952;52.516;13.460;2023-11-19T15:13:29;10.00;99.90
32502;DHT22;18952;52.516;13.460;2023-11-19T15:15:56;10.00;99.90
32502;DHT22;18952;52.516;13.460;2023-11-19T15:18:23;10.00;99.90
32502;DHT22;18952;52.516;13.460;2023-11-19T15:20:53;10.00;99.90
32502;DHT22;18952;52.516;13.460;2023-11-19T15:23:22;10.00;99.90
32502;DHT22;18952;52.516;13.460;2023-11-19T15:25:49;10.00;99.90
32502;DHT22;18952;52.516;13.460;2023-11-19T15:28:18;9.90;99.90
32502;DHT22;18952;52.516;13.460;2023-11-19T15:30:45;9.90;99.90
32502;DHT22;18952;52.516;13.460;2023-11-19T15:33:11;9.90;99.90
32502;DHT22;18952;52.516;13.460;2023-11-19T15:35:38;9.90;99.90
32502;DHT22;18952;52.516;13.460;2023-11-19T15:38:06;9.90;99.90
32502;DHT22;18952;52.516;13.460;2023-11-19T15:40:33;9.90;99.90
32502;DHT22;18952;52.516;13.460;2023-11-19T15:43:00;9.90;99.90
32502;DHT22;18952;52.516;13.460;2023-11-19T15:45:27;9.80;99.90
32502;DHT22;18952;52.516;13.460;2023-11-19T15:47:53;9.80;99.90
32502;DHT22;18952;52.516;13.460;2023-11-19T15:50:20;9.80;99.90
32502;DHT22;18952;52.516;13.460;2023-11-19T15:52:48;9.80;99.90
32502;DHT22;18952;52.516;13.460;2023-11-19T15:55:15;9.80;99.90
32502;DHT22;18952;52.516;13.460;2023-11-19T15:57:42;9.80;99.90
32502;DHT22;18952;52.516;13.460;2023-11-19T16:00:09;9.80;99.90